Time;durP1;ratioP1;P1;durP2;ratioP2;P2;SDS_P1;SDS_P2;PMS_P1;PMS_P2;Temp;Humidity;BMP_temperature;BMP_pressure;BME280_temperature;BME280_humidity;BME280_pressure;Samples;Min_cycle;Max_cycle;Signal;HPM_P1;HPM_P2
2023/07/03 00:00:45;;;;;;;12.60;5.88;;;;;;;19.53;57.46;97985.81;5047302;28;20044;-52
2023/07/03 00:03:13;;;;;;;14.82;5.78;;;;;;;19.50;58.40;97988.78;5066695;28;20043;-50
2023/07/03 00:05:47;;;;;;;9.13;5.50;;;;;;;19.44;59.51;97983.13;5049517;28;20036;-55
2023/07/03 00:08:14;;;;;;;16.95;6.13;;;;;;;19.46;58.94;97982.97;5067477;28;20055;-54
2023/07/03 00:10:40;;;;;;;11.13;5.82;;;;;;;19.43;58.63;97981.44;5067095;28;20036;-50
2023/07/03 00:13:07;;;;;;;11.90;5.30;;;;;;;19.41;57.72;97978.13;5044536;28;20040;-49
2023/07/03 00:15:33;;;;;;;12.88;5.60;;;;;;;19.49;57.13;97976.56;5033875;28;20040;-53
2023/07/03 00:17:59;;;;;;;9.40;5.18;;;;;;;19.52;57.22;97974.47;5065287;28;20131;-51
2023/07/03 00:20:27;;;;;;;10.80;5.63;;;;;;;19.57;57.40;97974.03;5067587;28;20039;-50
2023/07/03 00:22:56;;;;;;;11.98;5.72;;;;;;;19.48;57.03;97943.28;5071448;28;20058;-48
2023/07/03 00:25:22;;;;;;;11.65;5.65;;;;;;;19.52;57.69;97945.47;5086266;28;20036;-48
2023/07/03 00:27:49;;;;;;;16.33;5.20;;;;;;;19.65;57.48;97969.63;5085118;28;20400;-49
2023/07/03 00:30:15;;;;;;;12.07;6.22;;;;;;;19.61;57.99;97965.66;5046601;28;20518;-53
2023/07/03 00:32:42;;;;;;;12.82;5.85;;;;;;;19.47;57.66;97939.81;5078088;28;20036;-50
2023/07/03 00:35:08;;;;;;;13.23;5.75;;;;;;;19.63;57.47;97962.84;5068808;28;20063;-51
2023/07/03 00:37:34;;;;;;;11.07;5.85;;;;;;;19.63;58.10;97963.69;5069606;28;20089;-48
2023/07/03 00:40:01;;;;;;;9.70;5.95;;;;;;;19.66;57.08;97958.13;5085717;28;20048;-48
2023/07/03 00:42:28;;;;;;;10.52;5.97;;;;;;;19.69;57.36;97957.81;5065279;28;20037;-53
2023/07/03 00:44:55;;;;;;;10.88;6.53;;;;;;;19.73;56.90;97958.34;5064606;28;20074;-51
2023/07/03 00:47:22;;;;;;;11.05;5.75;;;;;;;19.79;56.24;97961.19;5068580;28;20557;-52
2023/07/03 00:49:48;;;;;;;9.10;5.90;;;;;;;19.81;55.98;97955.78;5087504;28;20115;-53
2023/07/03 00:52:14;;;;;;;9.73;6.20;;;;;;;19.89;55.89;97951.38;5055531;28;20135;-52
2023/07/03 00:54:40;;;;;;;9.88;5.82;;;;;;;19.77;56.08;97926.25;5057662;28;20054;-53
2023/07/03 00:57:11;;;;;;;10.25;4.93;;;;;;;19.93;56.02;97951.91;5093134;28;20036;-49
2023/07/03 00:59:36;;;;;;;9.55;4.85;;;;;;;19.95;55.68;97954.38;5066658;28;20052;-47
2023/07/03 01:02:14;;;;;;;11.85;5.63;;;;;;;19.95;55.70;97955.22;5068766;28;20045;-52
2023/07/03 01:04:51;;;;;;;9.82;5.78;;;;;;;19.97;55.64;97953.25;5070520;28;20036;-53
2023/07/03 01:07:22;;;;;;;10.15;5.45;;;;;;;19.97;55.55;97950.63;5077981;28;20075;-53
2023/07/03 01:09:53;;;;;;;11.48;6.00;;;;;;;19.97;55.43;97952.44;5052770;28;20032;-52
2023/07/03 01:12:20;;;;;;;9.98;5.30;;;;;;;19.82;56.37;97925.78;5087483;28;20036;-51
2023/07/03 01:14:46;;;;;;;13.25;5.38;;;;;;;19.97;56.36;97950.63;5068631;28;20055;-48
2023/07/03 01:17:13;;;;;;;7.97;5.28;;;;;;;20.00;56.58;97957.38;5086663;28;20036;-51
2023/07/03 01:19:41;;;;;;;11.13;5.43;;;;;;;20.02;56.22;97956.25;5073488;28;20044;-50
2023/07/03 01:22:24;;;;;;;12.35;5.38;;;;;;;20.11;55.80;97962.41;5072059;28;20515;-54
2023/07/03 01:25:10;;;;;;;8.52;5.60;;;;;;;20.04;56.05;97941.13;5071411;28;20111;-48
2023/07/03 01:27:42;;;;;;;10.80;5.32;;;;;;;20.15;56.05;97971.69;5090668;28;20142;-52
2023/07/03 01:30:12;;;;;;;12.10;5.93;;;;;;;20.15;56.19;97963.78;5059066;28;20036;-48
2023/07/03 01:32:39;;;;;;;14.18;6.20;;;;;;;20.14;56.38;97967.41;5085223;28;20444;-49
2023/07/03 01:35:08;;;;;;;11.25;5.22;;;;;;;19.84;57.78;97935.19;5053201;28;20046;-52
2023/07/03 01:37:37;;;;;;;7.67;4.70;;;;;;;20.09;58.73;97974.94;5080228;28;20055;-53
2023/07/03 01:40:06;;;;;;;8.85;5.05;;;;;;;20.05;59.64;97981.50;5081494;28;20163;-52
2023/07/03 01:42:35;;;;;;;10.38;5.80;;;;;;;20.08;59.56;97974.13;5066851;28;20039;-48
2023/07/03 01:45:02;;;;;;;8.45;5.50;;;;;;;19.95;60.05;97964.94;5086089;28;20161;-52
2023/07/03 01:47:29;;;;;;;8.57;5.73;;;;;;;19.99;61.09;97982.13;5071537;28;20040;-51
2023/07/03 01:49:55;;;;;;;12.88;6.10;;;;;;;19.91;61.55;97971.50;5089845;28;20043;-49
2023/07/03 01:52:25;;;;;;;7.97;5.65;;;;;;;19.91;62.27;97982.88;5071462;28;20526;-53
2023/07/03 01:55:04;;;;;;;9.93;5.80;;;;;;;19.87;62.59;97979.72;5087944;28;20040;-54
2023/07/03 01:57:56;;;;;;;11.02;6.88;;;;;;;19.84;63.36;97989.72;5081306;28;20052;-54
2023/07/03 02:00:30;;;;;;;10.98;6.13;;;;;;;19.59;64.46;97964.97;5075533;28;20072;-50
2023/07/03 02:03:00;;;;;;;10.20;6.10;;;;;;;19.68;64.96;97990.41;5086969;28;20042;-52
2023/07/03 02:05:29;;;;;;;8.52;5.50;;;;;;;19.44;65.63;97948.84;5085866;28;20045;-50
2023/07/03 02:07:59;;;;;;;11.35;6.43;;;;;;;19.58;66.34;97984.41;5062981;28;20089;-51
2023/07/03 02:10:25;;;;;;;10.90;5.93;;;;;;;19.52;67.24;97979.75;5070954;28;20032;-51
2023/07/03 02:12:52;;;;;;;18.13;6.40;;;;;;;19.29;68.45;97966.13;5051587;28;20302;-53
2023/07/03 02:15:21;;;;;;;;;;;;;;;19.34;69.44;97989.41;5068371;28;20043;-52
2023/07/03 02:17:47;;;;;;;10.68;5.90;;;;;;;19.18;70.83;97982.16;5074925;28;19939;-51
2023/07/03 02:20:14;;;;;;;12.88;6.63;;;;;;;19.01;71.91;97956.59;5077828;28;20051;-50
2023/07/03 02:22:41;;;;;;;10.50;6.68;;;;;;;19.11;72.05;97978.44;5069966;28;20059;-49
2023/07/03 02:25:09;;;;;;;10.20;6.75;;;;;;;18.95;73.27;97965.91;5063971;28;20040;-50
2023/07/03 02:27:34;;;;;;;8.27;5.82;;;;;;;19.05;74.07;97987.75;5080537;28;20627;-51
2023/07/03 02:30:01;;;;;;;11.38;6.65;;;;;;;19.04;74.19;97991.41;5088538;28;20050;-50
2023/07/03 02:32:36;;;;;;;14.82;5.80;;;;;;;18.91;74.92;97980.38;5088089;28;20074;-51
2023/07/03 02:35:05;;;;;;;12.45;6.78;;;;;;;19.00;75.34;98003.19;5080419;28;20068;-51
2023/07/03 02:37:31;;;;;;;10.27;6.40;;;;;;;18.88;75.89;97971.94;5054584;28;20086;-50
2023/07/03 02:39:57;;;;;;;10.65;5.60;;;;;;;18.99;76.30;98005.97;5088582;28;20468;-53
2023/07/03 02:42:23;;;;;;;10.85;7.40;;;;;;;19.08;76.06;98006.91;5087358;28;20060;-51
2023/07/03 02:44:49;;;;;;;12.93;6.45;;;;;;;18.92;75.74;97970.66;5050382;28;20033;-51
2023/07/03 02:47:14;;;;;;;17.17;6.55;;;;;;;19.10;76.35;98018.97;5086238;28;20052;-52
2023/07/03 02:49:41;;;;;;;10.35;6.72;;;;;;;19.07;76.72;98013.13;5089554;28;20032;-55
2023/07/03 02:52:08;;;;;;;10.10;6.22;;;;;;;18.97;77.14;98014.00;5067426;28;20131;-52
2023/07/03 02:54:35;;;;;;;10.93;6.57;;;;;;;18.91;77.63;98014.59;5054868;28;20040;-55
2023/07/03 02:57:02;;;;;;;14.30;7.07;;;;;;;18.78;77.82;98000.13;5082497;28;20032;-55
2023/07/03 02:59:29;;;;;;;10.18;5.90;;;;;;;18.87;78.31;98007.13;5055041;28;20044;-54
2023/07/03 03:01:56;;;;;;;11.15;6.55;;;;;;;18.87;78.55;98020.31;5074241;28;20512;-49
2023/07/03 03:04:23;;;;;;;10.23;6.18;;;;;;;18.88;78.62;98032.50;5060593;28;20055;-53
2023/07/03 03:06:49;;;;;;;10.23;6.43;;;;;;;18.89;79.11;98031.53;5073006;28;20036;-48
2023/07/03 03:09:15;;;;;;;8.43;5.85;;;;;;;18.94;78.90;98030.13;5087694;28;20048;-52
2023/07/03 03:11:41;;;;;;;12.73;6.63;;;;;;;18.93;79.24;98025.00;5086934;28;20507;-48
2023/07/03 03:14:08;;;;;;;12.02;6.70;;;;;;;18.97;79.14;98026.34;5070422;28;20082;-51
2023/07/03 03:16:34;;;;;;;10.35;7.10;;;;;;;19.03;79.22;98036.31;5069966;28;20052;-54
2023/07/03 03:19:01;;;;;;;11.73;6.57;;;;;;;19.12;78.96;98035.44;5087995;28;20130;-47
2023/07/03 03:21:29;;;;;;;11.88;6.68;;;;;;;19.13;78.70;98023.91;5085177;28;20051;-52
2023/07/03 03:24:10;;;;;;;12.50;6.68;;;;;;;19.09;78.84;98027.81;5049330;28;20044;-46
2023/07/03 03:26:36;;;;;;;11.40;6.93;;;;;;;19.07;79.06;98032.41;5043929;28;20033;-53
2023/07/03 03:29:02;;;;;;;13.70;7.00;;;;;;;18.98;79.70;98042.03;5014200;28;20489;-50
2023/07/03 03:31:29;;;;;;;9.25;6.55;;;;;;;18.89;80.24;98027.06;5014598;28;20055;-48
2023/07/03 03:33:59;;;;;;;10.57;5.50;;;;;;;18.67;81.09;98016.09;5017907;28;20125;-49
2023/07/03 03:36:25;;;;;;;13.10;6.63;;;;;;;18.81;81.87;98055.09;5034111;28;20045;-49
2023/07/03 03:38:51;;;;;;;9.65;6.03;;;;;;;18.88;81.87;98050.94;5014084;28;20143;-49
2023/07/03 03:41:18;;;;;;;9.30;6.32;;;;;;;18.89;82.07;98055.22;5036143;28;20095;-51
2023/07/03 03:43:48;;;;;;;10.20;7.10;;;;;;;18.68;82.11;98020.38;5011107;28;20044;-51
2023/07/03 03:46:14;;;;;;;8.50;5.68;;;;;;;18.94;82.01;98064.34;5035695;28;20036;-50
2023/07/03 03:48:40;;;;;;;10.80;6.20;;;;;;;18.93;82.13;98062.69;5033358;28;20124;-49
2023/07/03 03:51:09;;;;;;;9.68;6.53;;;;;;;18.90;82.12;98048.97;5029906;28;20051;-50
2023/07/03 03:53:35;;;;;;;11.18;6.63;;;;;;;19.18;81.88;98070.91;5042289;28;20068;-49
2023/07/03 03:56:01;;;;;;;11.05;6.78;;;;;;;19.28;81.18;98069.03;5045362;28;20483;-48
2023/07/03 03:58:29;;;;;;;8.63;5.72;;;;;;;19.25;80.93;98064.09;5045357;28;20045;-48
2023/07/03 04:00:55;;;;;;;12.48;5.70;;;;;;;19.24;80.77;98060.63;5038239;28;20051;-49
2023/07/03 04:03:22;;;;;;;8.82;5.15;;;;;;;19.26;80.56;98055.19;5049464;28;20496;-51
2023/07/03 04:05:48;;;;;;;9.57;5.57;;;;;;;19.41;80.55;98085.34;5033300;28;20086;-49
2023/07/03 04:08:14;;;;;;;9.02;5.10;;;;;;;19.50;80.08;98084.50;5032287;28;20040;-52
2023/07/03 04:10:42;;;;;;;10.00;6.95;;;;;;;19.85;79.31;98092.44;5048560;28;20048;-48
2023/07/03 04:13:10;;;;;;;7.18;4.75;;;;;;;20.07;77.55;98107.00;5047039;28;20388;-50
2023/07/03 04:15:37;;;;;;;8.27;5.72;;;;;;;19.98;77.28;98094.72;5067097;28;20783;-49
2023/07/03 04:18:03;;;;;;;9.00;5.53;;;;;;;19.99;76.75;98109.59;5032913;28;20044;-54
2023/07/03 04:20:29;;;;;;;12.48;4.78;;;;;;;20.11;76.33;98108.34;5032660;28;22645;-48
2023/07/03 04:22:55;;;;;;;9.55;5.93;;;;;;;20.12;75.96;98127.66;5054868;28;20067;-50
2023/07/03 04:25:21;;;;;;;10.00;4.70;;;;;;;20.18;75.55;98112.06;5083045;28;20044;-49
2023/07/03 04:27:47;;;;;;;8.52;4.60;;;;;;;20.08;75.21;98099.94;5040057;28;20051;-54
2023/07/03 04:30:13;;;;;;;8.05;5.00;;;;;;;20.15;75.40;98130.81;5070705;28;20044;-53
2023/07/03 04:32:39;;;;;;;6.18;4.78;;;;;;;20.08;75.49;98128.94;5091118;28;20036;-50
2023/07/03 04:35:06;;;;;;;9.57;4.68;;;;;;;20.11;75.30;98129.47;5088989;28;20044;-50
2023/07/03 04:37:32;;;;;;;8.73;5.15;;;;;;;20.24;74.94;98127.31;5091025;28;20039;-51
2023/07/03 04:39:58;;;;;;;8.68;4.85;;;;;;;20.32;74.51;98137.13;5056095;28;20526;-47
2023/07/03 04:42:24;;;;;;;6.68;4.28;;;;;;;20.21;73.84;98114.38;5070946;28;20044;-50
2023/07/03 04:44:50;;;;;;;9.38;4.18;;;;;;;20.48;73.10;98136.41;5087887;28;20035;-50
2023/07/03 04:47:16;;;;;;;8.38;4.18;;;;;;;20.53;72.59;98136.78;5069565;28;20495;-52
2023/07/03 04:49:45;;;;;;;7.20;3.88;;;;;;;20.54;71.72;98139.28;5087286;28;20032;-52
2023/07/03 04:52:16;;;;;;;7.75;5.00;;;;;;;20.60;71.74;98146.59;5091851;28;20039;-49
2023/07/03 04:54:43;;;;;;;8.98;4.63;;;;;;;20.73;71.14;98148.03;5089526;28;20044;-49
2023/07/03 04:57:09;;;;;;;6.82;4.00;;;;;;;20.55;71.40;98156.78;5088850;28;20155;-51
2023/07/03 04:59:36;;;;;;;8.02;3.72;;;;;;;20.26;71.42;98135.88;5086815;28;20048;-49
2023/07/03 05:02:02;;;;;;;5.80;3.72;;;;;;;20.40;71.09;98182.06;5091236;28;20033;-50
2023/07/03 05:04:28;;;;;;;4.88;3.38;;;;;;;20.44;70.10;98159.66;5090241;28;20089;-49
2023/07/03 05:06:54;;;;;;;5.07;3.20;;;;;;;20.16;69.70;98143.03;5089741;28;20035;-52
2023/07/03 05:09:20;;;;;;;6.75;4.00;;;;;;;20.34;69.57;98164.19;5086814;28;20048;-51
2023/07/03 05:11:48;;;;;;;7.32;3.47;;;;;;;20.29;69.13;98161.16;5084061;28;20048;-51
2023/07/03 05:14:15;;;;;;;4.18;3.33;;;;;;;20.34;68.83;98126.41;5073859;28;20477;-53
2023/07/03 05:16:41;;;;;;;6.78;3.65;;;;;;;20.54;68.40;98167.50;5067616;28;20146;-53
2023/07/03 05:19:07;;;;;;;8.38;3.25;;;;;;;20.66;67.81;98167.13;5086700;28;20058;-50
2023/07/03 05:21:33;;;;;;;7.20;3.40;;;;;;;20.50;68.28;98164.34;5086001;28;20046;-50
2023/07/03 05:23:59;;;;;;;5.45;3.80;;;;;;;20.61;68.66;98187.88;5051587;28;20040;-51
2023/07/03 05:26:25;;;;;;;5.22;2.70;;;;;;;20.71;68.02;98191.25;5047167;28;20055;-52
2023/07/03 05:28:50;;;;;;;5.75;3.72;;;;;;;20.70;68.28;98197.53;5047278;28;20060;-54
2023/07/03 05:31:19;;;;;;;8.52;4.20;;;;;;;20.55;68.29;98170.00;5048164;28;20080;-54
2023/07/03 05:33:45;;;;;;;;;;;;;;;20.91;67.75;98204.28;5047778;28;20419;-52
2023/07/03 05:36:11;;;;;;;5.85;3.50;;;;;;;20.92;66.99;98203.31;5067735;28;19924;-50
2023/07/03 05:38:37;;;;;;;5.07;3.42;;;;;;;20.94;66.20;98203.97;5067989;28;20066;-50
2023/07/03 05:41:03;;;;;;;5.35;3.40;;;;;;;20.95;65.47;98210.91;5041142;28;20052;-49
2023/07/03 05:43:29;;;;;;;7.40;3.60;;;;;;;20.88;65.47;98204.59;5033137;28;20045;-49
2023/07/03 05:45:55;;;;;;;3.90;2.70;;;;;;;21.00;64.67;98198.06;5049788;28;20131;-50
2023/07/03 05:48:21;;;;;;;5.75;3.60;;;;;;;21.04;64.14;98207.38;5049710;28;20483;-54
2023/07/03 05:50:47;;;;;;;7.53;3.20;;;;;;;21.29;63.74;98217.16;5050716;28;20508;-50
2023/07/03 05:53:13;;;;;;;11.73;3.08;;;;;;;21.28;62.50;98199.63;5023966;28;20072;-53
2023/07/03 05:55:39;;;;;;;3.60;2.60;;;;;;;21.20;61.24;98220.69;5032617;28;20065;-50
2023/07/03 05:58:05;;;;;;;6.13;2.65;;;;;;;21.22;60.35;98212.63;5032556;28;20131;-50
2023/07/03 06:00:31;;;;;;;7.60;3.45;;;;;;;21.26;60.02;98230.66;5050810;28;20469;-52
2023/07/03 06:02:59;;;;;;;4.60;2.72;;;;;;;21.32;58.58;98218.63;5052163;28;20041;-53
2023/07/03 06:05:25;;;;;;;6.18;2.95;;;;;;;21.38;57.82;98215.38;5041232;28;20045;-49
2023/07/03 06:07:53;;;;;;;4.43;2.65;;;;;;;21.52;57.44;98225.34;5070312;28;20043;-54
2023/07/03 06:10:18;;;;;;;4.22;1.70;;;;;;;21.68;53.90;98233.38;5050741;28;20515;-51
2023/07/03 06:12:46;;;;;;;5.47;1.67;;;;;;;21.43;51.27;98221.03;5035319;28;20037;-50
2023/07/03 06:15:11;;;;;;;5.35;2.10;;;;;;;21.38;50.86;98244.47;5067000;28;20067;-49
2023/07/03 06:17:40;;;;;;;6.88;2.20;;;;;;;21.41;50.98;98241.47;5067039;28;20356;-51
2023/07/03 06:20:07;;;;;;;3.23;2.03;;;;;;;21.54;51.32;98244.56;5038508;28;20045;-50
2023/07/03 06:22:32;;;;;;;5.00;2.08;;;;;;;21.81;51.09;98236.44;5064050;28;20429;-52
2023/07/03 06:24:58;;;;;;;4.53;2.03;;;;;;;21.98;50.99;98258.53;5063197;28;20116;-49
2023/07/03 06:27:24;;;;;;;5.57;1.77;;;;;;;21.95;50.12;98245.59;5052426;28;20071;-50
2023/07/03 06:29:50;;;;;;;3.83;2.47;;;;;;;21.93;50.75;98264.25;5050756;28;20131;-50
2023/07/03 06:32:18;;;;;;;4.40;2.25;;;;;;;22.05;50.74;98258.72;5039952;28;20414;-54
2023/07/03 06:34:44;;;;;;;6.17;2.33;;;;;;;22.19;50.68;98263.41;5054460;28;20044;-52
2023/07/03 06:37:10;;;;;;;4.55;2.42;;;;;;;22.22;50.30;98261.25;5054436;28;20037;-53
2023/07/03 06:39:39;;;;;;;11.73;2.30;;;;;;;22.15;49.82;98251.47;5021835;28;20086;-46
2023/07/03 06:42:06;;;;;;;4.45;2.22;;;;;;;22.47;49.51;98267.44;5040318;28;20041;-46
2023/07/03 06:44:33;;;;;;;7.80;2.55;;;;;;;22.69;47.48;98232.41;5032145;28;20070;-46
2023/07/03 06:46:59;;;;;;;4.43;1.77;;;;;;;23.23;46.36;98276.00;5037844;28;20063;-44
2023/07/03 06:49:25;;;;;;;4.22;1.88;;;;;;;23.60;45.56;98259.53;5043920;28;20134;-42
2023/07/03 06:51:52;;;;;;;7.85;2.35;;;;;;;24.53;44.09;98274.81;5036556;28;20037;-46
2023/07/03 06:54:18;;;;;;;7.75;4.65;;;;;;;25.72;42.46;98283.84;5042652;28;20604;-44
2023/07/03 06:56:43;;;;;;;5.55;2.17;;;;;;;25.99;40.24;98288.56;5030505;28;20521;-46
2023/07/03 06:59:09;;;;;;;6.07;2.10;;;;;;;26.25;39.13;98287.28;5043228;28;20036;-43
2023/07/03 07:01:35;;;;;;;4.95;2.08;;;;;;;26.70;38.44;98292.31;5032932;28;20043;-43
2023/07/03 07:04:01;;;;;;;3.85;2.28;;;;;;;26.79;37.83;98293.88;5051030;28;20474;-43
2023/07/03 07:06:29;;;;;;;3.88;2.28;;;;;;;27.44;36.94;98286.66;5066063;28;20024;-44
2023/07/03 07:08:55;;;;;;;4.90;2.22;;;;;;;27.56;36.62;98298.50;5038713;28;20040;-43
2023/07/03 07:11:25;;;;;;;6.57;2.35;;;;;;;29.18;34.28;98308.50;5034830;28;20044;-48
2023/07/03 07:13:51;;;;;;;3.35;2.22;;;;;;;30.12;33.62;98306.41;5059341;28;20074;-46
2023/07/03 07:16:23;;;;;;;9.02;2.33;;;;;;;31.42;31.91;98305.94;5035378;28;20118;-41
2023/07/03 07:18:56;;;;;;;5.10;2.33;;;;;;;32.75;29.57;98310.59;5025475;28;20048;-44
2023/07/03 07:21:23;;;;;;;4.55;2.10;;;;;;;32.86;29.17;98318.94;5054980;28;20040;-45
2023/07/03 07:23:54;;;;;;;6.45;2.60;;;;;;;32.57;29.03;98318.66;5039568;28;20051;-44
2023/07/03 07:26:22;;;;;;;3.55;2.22;;;;;;;32.99;28.40;98321.41;5041668;28;20045;-44
2023/07/03 07:28:49;;;;;;;4.53;2.53;;;;;;;33.06;28.52;98335.63;5052654;28;20535;-42
2023/07/03 07:31:23;;;;;;;2.47;2.05;;;;;;;33.95;26.42;98329.25;5059324;28;20142;-47
2023/07/03 07:33:49;;;;;;;3.85;2.28;;;;;;;33.46;26.80;98331.28;5043577;28;20040;-45
2023/07/03 07:36:17;;;;;;;3.75;2.33;;;;;;;32.72;27.00;98340.63;5041907;28;20055;-48
2023/07/03 07:38:43;;;;;;;4.27;2.07;;;;;;;33.27;26.73;98332.44;5054019;28;20043;-47
2023/07/03 07:41:09;;;;;;;3.92;1.80;;;;;;;33.81;25.99;98331.34;5035130;28;20295;-44
2023/07/03 07:43:35;;;;;;;4.47;2.08;;;;;;;33.21;26.21;98346.81;5042222;28;20130;-50
2023/07/03 07:46:01;;;;;;;4.00;2.00;;;;;;;32.06;27.24;98340.53;5041049;28;20086;-43
2023/07/03 07:48:27;;;;;;;4.75;1.95;;;;;;;32.43;26.25;98349.47;5047772;28;20040;-43
2023/07/03 07:50:53;;;;;;;4.78;1.95;;;;;;;33.38;25.64;98358.59;5039725;28;20052;-49
2023/07/03 07:53:19;;;;;;;4.60;1.73;;;;;;;33.52;25.45;98359.19;5057835;28;20538;-44
2023/07/03 07:55:45;;;;;;;3.65;2.00;;;;;;;34.48;25.05;98364.16;5039307;28;20491;-45
2023/07/03 07:58:11;;;;;;;3.30;2.13;;;;;;;35.31;23.91;98371.75;5052472;28;20033;-47
2023/07/03 08:00:40;;;;;;;4.80;2.03;;;;;;;34.87;23.73;98370.63;5016755;28;20056;-49
2023/07/03 08:03:05;;;;;;;4.53;2.33;;;;;;;35.28;23.74;98364.94;5034477;28;20057;-47
2023/07/03 08:05:31;;;;;;;5.50;2.25;;;;;;;36.54;22.23;98362.56;5056110;28;20033;-51
2023/07/03 08:07:58;;;;;;;3.92;2.30;;;;;;;37.54;20.90;98358.53;5033131;28;20040;-51
2023/07/03 08:10:24;;;;;;;9.20;2.40;;;;;;;37.41;21.36;98378.78;5034300;28;20052;-46
2023/07/03 08:12:52;;;;;;;4.45;2.15;;;;;;;36.76;21.46;98365.31;5060216;28;20419;-47
2023/07/03 08:15:18;;;;;;;;;;;;;;;36.40;21.71;98386.50;5058815;28;20036;-54
2023/07/03 08:17:44;;;;;;;4.60;2.15;;;;;;;36.25;22.01;98380.06;5034545;28;19922;-51
2023/07/03 08:20:11;;;;;;;3.92;2.10;;;;;;;35.52;22.12;98392.69;5016800;28;20137;-53
2023/07/03 08:22:38;;;;;;;3.90;2.30;;;;;;;36.32;22.10;98399.66;5056551;28;20530;-54
2023/07/03 08:25:05;;;;;;;7.82;2.17;;;;;;;36.61;21.45;98400.31;5055647;28;20080;-43
2023/07/03 08:27:31;;;;;;;4.50;2.05;;;;;;;36.60;21.38;98402.19;5068426;28;20044;-42
2023/07/03 08:29:57;;;;;;;3.08;2.03;;;;;;;37.11;20.62;98403.66;5072807;28;20409;-47
2023/07/03 08:32:23;;;;;;;3.47;1.88;;;;;;;35.31;21.86;98408.78;5083125;28;20511;-46
2023/07/03 08:34:50;;;;;;;5.28;3.20;;;;;;;34.35;23.27;98421.06;5069411;28;20130;-48
2023/07/03 08:37:16;;;;;;;5.63;2.53;;;;;;;34.95;22.79;98407.25;5084247;28;20043;-49
2023/07/03 08:39:42;;;;;;;4.55;2.20;;;;;;;36.50;21.51;98412.91;5045888;28;20059;-47
2023/07/03 08:42:13;;;;;;;3.78;2.05;;;;;;;36.69;21.33;98418.88;5086026;28;20358;-49
2023/07/03 08:44:40;;;;;;;7.18;2.70;;;;;;;37.47;20.81;98413.00;5084184;28;20164;-47
2023/07/03 08:47:09;;;;;;;4.63;2.25;;;;;;;38.27;19.75;98422.06;5076081;28;20032;-48
2023/07/03 08:49:36;;;;;;;6.50;2.33;;;;;;;37.72;19.92;98423.28;5076877;28;20439;-48
2023/07/03 08:52:03;;;;;;;5.75;2.20;;;;;;;37.70;19.87;98428.16;5083293;28;20043;-46
2023/07/03 08:54:32;;;;;;;5.15;2.20;;;;;;;38.55;19.89;98429.91;5074464;28;20131;-50
2023/07/03 08:56:58;;;;;;;3.35;2.45;;;;;;;39.77;18.53;98447.47;5056420;28;20051;-45
2023/07/03 08:59:24;;;;;;;5.30;2.22;;;;;;;38.78;18.85;98404.19;5056187;28;20124;-44
2023/07/03 09:01:57;;;;;;;5.07;2.22;;;;;;;39.50;18.39;98442.25;5072259;28;20500;-41
2023/07/03 09:04:47;;;;;;;3.85;1.90;;;;;;;38.02;19.42;98430.88;5072182;28;20366;-44
2023/07/03 09:07:17;;;;;;;5.25;2.08;;;;;;;39.12;19.08;98443.47;5076350;28;20062;-47
2023/07/03 09:10:04;;;;;;;5.57;2.38;;;;;;;40.47;18.17;98435.69;5057454;28;20123;-50
2023/07/03 09:12:36;;;;;;;3.92;2.35;;;;;;;39.44;19.17;98437.06;5073436;28;20040;-46
2023/07/03 09:15:26;;;;;;;3.00;1.98;;;;;;;37.82;20.20;98442.38;5079342;28;20092;-47
2023/07/03 09:17:53;;;;;;;3.47;2.40;;;;;;;35.96;21.99;98434.25;5080062;28;20048;-50
2023/07/03 09:20:19;;;;;;;5.80;2.30;;;;;;;37.00;21.36;98442.56;5088307;28;20449;-46
2023/07/03 09:22:54;;;;;;;4.10;2.15;;;;;;;38.15;20.00;98439.41;5064986;28;20049;-48
2023/07/03 09:25:31;;;;;;;6.80;3.30;;;;;;;37.10;20.84;98442.72;5047674;28;20063;-64
2023/07/03 09:28:00;;;;;;;5.05;2.78;;;;;;;37.35;20.89;98431.31;5038565;28;20048;-58
2023/07/03 09:30:26;;;;;;;5.15;2.20;;;;;;;37.03;21.14;98433.91;5062915;28;20048;-53
2023/07/03 09:32:52;;;;;;;3.45;2.35;;;;;;;35.77;21.77;98469.94;5039056;28;20047;-48
2023/07/03 09:35:20;;;;;;;6.28;2.20;;;;;;;35.23;22.18;98461.34;5047784;28;20098;-49
2023/07/03 09:37:50;;;;;;;4.53;2.30;;;;;;;35.24;22.22;98461.09;5036251;28;20139;-58
2023/07/03 09:40:22;;;;;;;3.45;2.30;;;;;;;34.89;22.71;98464.94;5049940;28;20049;-61
2023/07/03 09:42:49;;;;;;;4.32;2.20;;;;;;;36.05;21.15;98464.47;5032123;28;20052;-64
2023/07/03 09:45:20;;;;;;;4.38;2.35;;;;;;;35.97;21.40;98456.75;5049013;28;20036;-64
2023/07/03 09:47:52;;;;;;;2.80;2.30;;;;;;;35.46;21.44;98469.34;5068254;28;20559;-66
2023/07/03 09:50:28;;;;;;;3.10;2.30;;;;;;;35.00;22.53;98464.09;5050176;28;20048;-67
2023/07/03 09:52:56;;;;;;;5.18;2.38;;;;;;;35.66;21.97;98471.59;5025646;28;20029;-62
2023/07/03 09:55:22;;;;;;;;;;;;;;;35.66;22.16;98472.47;5060453;28;20040;-63
2023/07/03 09:57:47;;;;;;;4.25;2.20;;;;;;;34.14;23.18;98440.53;5046654;28;19926;-64
2023/07/03 10:00:20;;;;;;;8.27;2.40;;;;;;;32.89;25.26;98475.47;5049588;28;20064;-64
2023/07/03 10:02:52;;;;;;;5.90;2.00;;;;;;;31.50;26.79;98488.38;5017339;28;20033;-62
2023/07/03 10:05:20;;;;;;;5.07;2.20;;;;;;;30.55;27.43;98486.44;5066223;28;20044;-58
2023/07/03 10:07:47;;;;;;;4.25;1.98;;;;;;;29.61;28.76;98483.91;5050517;28;20136;-60
2023/07/03 10:10:21;;;;;;;5.00;2.35;;;;;;;29.75;28.93;98474.00;5034435;28;20102;-63
2023/07/03 10:12:59;;;;;;;3.70;1.80;;;;;;;28.70;29.38;98436.13;5032152;28;20925;-56
2023/07/03 10:15:27;;;;;;;4.10;2.33;;;;;;;28.54;29.76;98485.44;5060147;28;20049;-57
2023/07/03 10:17:56;;;;;;;8.82;2.47;;;;;;;30.58;28.05;98484.16;5050403;28;20786;-59
2023/07/03 10:20:34;;;;;;;9.20;2.47;;;;;;;30.72;27.21;98498.38;5050835;28;20076;-59
2023/07/03 10:23:02;;;;;;;;;;;;;;;31.28;26.77;98490.56;5036254;28;20102;-57
2023/07/03 10:25:32;;;;;;;4.38;1.95;;;;;;;31.39;26.08;98499.81;5047718;28;19916;-58
2023/07/03 10:28:02;;;;;;;7.47;2.00;;;;;;;31.56;25.48;98506.34;5050271;28;20082;-60
2023/07/03 10:30:30;;;;;;;4.15;1.60;;;;;;;32.40;25.03;98513.22;5050140;28;20045;-54
2023/07/03 10:32:56;;;;;;;;;;;;;;;32.35;25.11;98516.56;5025904;28;20044;-54
2023/07/03 10:35:27;;;;;;;5.85;1.83;;;;;;;32.86;24.68;98493.94;5059695;28;19927;-58
2023/07/03 10:38:08;;;;;;;3.33;2.00;;;;;;;33.85;23.42;98515.09;5029780;28;20542;-59
2023/07/03 10:40:40;;;;;;;8.38;2.70;;;;;;;35.24;22.67;98523.25;5026858;28;20044;-54
2023/07/03 10:43:10;;;;;;;6.05;2.22;;;;;;;36.12;21.52;98516.53;5043632;28;20040;-59
2023/07/03 10:45:38;;;;;;;4.68;2.17;;;;;;;37.43;20.62;98535.78;5044744;28;20098;-53
2023/07/03 10:48:19;;;;;;;5.55;1.88;;;;;;;36.02;21.47;98527.19;5009397;28;20044;-57
2023/07/03 10:51:17;;;;;;;5.10;2.10;;;;;;;33.00;23.94;98517.81;5041394;28;20044;-48
2023/07/03 10:53:47;;;;;;;3.95;2.00;;;;;;;31.30;25.95;98527.97;5048997;28;20060;-58
2023/07/03 10:56:29;;;;;;;4.75;1.55;;;;;;;32.40;24.74;98505.94;5050843;28;20033;-54
2023/07/03 10:59:08;;;;;;;3.75;1.95;;;;;;;31.33;25.31;98488.06;5030578;28;20073;-52
2023/07/03 11:01:34;;;;;;;3.65;1.70;;;;;;;32.03;24.82;98531.09;5055727;28;20096;-52
2023/07/03 11:04:19;;;;;;;7.68;2.53;;;;;;;32.30;24.69;98527.97;5068054;28;20063;-50
2023/07/03 11:06:53;;;;;;;6.07;2.63;;;;;;;34.02;23.58;98533.06;5067084;28;20605;-50
2023/07/03 11:09:42;;;;;;;3.45;2.10;;;;;;;33.22;24.19;98538.94;5030319;28;20051;-53
2023/07/03 11:12:26;;;;;;;3.17;1.83;;;;;;;33.34;23.96;98535.22;5035971;28;20052;-53
2023/07/03 11:14:58;;;;;;;7.28;1.98;;;;;;;31.25;26.22;98541.22;5043017;28;20083;-51
2023/07/03 11:17:27;;;;;;;5.50;2.10;;;;;;;29.87;28.08;98540.22;5055944;28;20048;-55
2023/07/03 11:20:20;;;;;;;5.55;2.38;;;;;;;32.30;25.88;98536.06;5032691;28;20122;-51
2023/07/03 11:22:50;;;;;;;5.28;2.20;;;;;;;34.44;23.20;98555.44;5041919;28;20056;-53
2023/07/03 11:25:21;;;;;;;4.57;2.78;;;;;;;35.48;22.04;98542.94;5087422;28;20131;-53
2023/07/03 11:28:08;;;;;;;7.75;3.17;;;;;;;37.00;21.04;98552.88;5071567;28;20145;-54
2023/07/03 11:30:35;;;;;;;10.60;3.17;;;;;;;38.28;19.46;98526.91;5086595;28;20040;-53
2023/07/03 11:33:05;;;;;;;3.88;2.50;;;;;;;37.99;19.22;98556.25;5087633;28;20122;-54
2023/07/03 11:35:32;;;;;;;5.65;2.80;;;;;;;38.66;18.97;98559.28;5087111;28;20052;-53
2023/07/03 11:38:06;;;;;;;8.85;2.42;;;;;;;38.90;18.77;98576.88;5083933;28;20557;-55